CHS weather

Charleston Air Force Base-International Airport
Charleston, South Carolina, United States

Public forecast

Using degrees Fahrenheit for public forecast. Weather courtesy of forecast.io.

METAR (pilot weather report)

Retrieved 2017/10/22 08:56 UTC (15 minutes ago):

KCHS 220856Z 05007KT 10SM FEW050 19/19 A3024 RMK AO2 SLP239 T01940189 56007

TAF (pilot weather forecast)

Retrieved 2017/10/22 06:27 UTC (3 hours ago):

TAF KCHS 220520Z 2206/2306 06004KT P6SM FEW040 SCT250 FM221400 07008KT P6SM SCT040 FM222000 12009KT P6SM VCSH SCT035 BKN050